createdAt,value
2018-03-04T00:00:55.535Z,85.80
2018-03-04T00:03:22.255Z,84.50
2018-03-04T00:05:48.212Z,84.50
2018-03-04T00:08:14.178Z,84.40
2018-03-04T00:10:40.893Z,83.60
2018-03-04T00:13:06.862Z,83.50
2018-03-04T00:15:33.566Z,83.70
2018-03-04T00:17:59.560Z,83.60
2018-03-04T00:20:26.326Z,83.70
2018-03-04T00:22:52.295Z,83.70
2018-03-04T00:25:18.252Z,84.10
2018-03-04T00:27:44.280Z,84.20
2018-03-04T00:30:10.220Z,85.00
2018-03-04T00:32:36.189Z,85.30
2018-03-04T00:35:02.912Z,86.20
2018-03-04T00:37:28.887Z,86.30
2018-03-04T00:39:54.874Z,86.90
2018-03-04T00:42:20.821Z,85.10
2018-03-04T00:44:46.790Z,83.30
2018-03-04T00:47:12.752Z,82.60
2018-03-04T00:49:38.712Z,82.30
2018-03-04T00:52:04.743Z,83.50
2018-03-04T00:54:30.707Z,84.10
2018-03-04T00:56:57.415Z,84.60
2018-03-04T00:59:23.651Z,84.50
2018-03-04T01:01:49.612Z,84.30
2018-03-04T01:04:15.650Z,84.30
2018-03-04T01:06:42.050Z,85.00
2018-03-04T01:09:08.023Z,84.60
2018-03-04T01:11:33.988Z,84.50
2018-03-04T01:14:00.994Z,84.70
2018-03-04T01:16:26.964Z,84.70
2018-03-04T01:18:52.922Z,84.30
2018-03-04T01:21:19.628Z,84.90
2018-03-04T01:23:45.605Z,84.90
2018-03-04T01:26:11.679Z,84.90
2018-03-04T01:28:37.661Z,85.20
2018-03-04T01:31:03.633Z,84.90
2018-03-04T01:33:29.623Z,85.20
2018-03-04T01:35:55.577Z,86.50
2018-03-04T01:38:22.317Z,86.60
2018-03-04T01:40:49.029Z,87.20
2018-03-04T01:43:15.037Z,87.10
2018-03-04T01:45:41.014Z,87.10
2018-03-04T01:48:07.004Z,85.50
2018-03-04T01:50:34.101Z,84.10
2018-03-04T01:53:00.068Z,84.10
2018-03-04T01:55:26.028Z,84.50
2018-03-04T01:57:52.738Z,84.70
2018-03-04T02:00:18.723Z,84.60
2018-03-04T02:02:45.503Z,85.00
2018-03-04T02:05:11.497Z,84.80
2018-03-04T02:07:37.466Z,84.80
2018-03-04T02:10:03.449Z,85.30
2018-03-04T02:12:30.158Z,85.60
2018-03-04T02:14:56.138Z,85.60
2018-03-04T02:17:22.157Z,85.70
2018-03-04T02:19:48.161Z,84.50
2018-03-04T02:22:14.534Z,84.50
2018-03-04T02:24:40.512Z,83.60
2018-03-04T02:27:07.209Z,84.10
2018-03-04T02:29:33.161Z,84.00
2018-03-04T02:31:59.137Z,84.50
2018-03-04T02:34:25.834Z,85.20
2018-03-04T02:36:51.844Z,85.10
2018-03-04T02:39:17.811Z,84.90
2018-03-04T02:41:43.799Z,84.10
2018-03-04T02:44:10.501Z,84.10
2018-03-04T02:46:36.464Z,84.10
2018-03-04T02:49:02.672Z,84.80
2018-03-04T02:51:28.630Z,85.20
2018-03-04T02:53:54.608Z,85.40
2018-03-04T02:56:20.574Z,85.00
2018-03-04T02:58:46.582Z,83.90
2018-03-04T03:01:12.595Z,84.60
2018-03-04T03:03:39.335Z,83.60
2018-03-04T03:06:06.052Z,83.90
2018-03-04T03:08:32.024Z,83.90
2018-03-04T03:10:57.988Z,84.60
2018-03-04T03:13:23.946Z,85.20
2018-03-04T03:15:49.911Z,85.80
2018-03-04T03:18:15.896Z,85.50
2018-03-04T03:20:42.639Z,84.50
2018-03-04T03:23:09.332Z,85.00
2018-03-04T03:25:35.320Z,85.00
2018-03-04T03:28:02.012Z,85.80
2018-03-04T03:30:27.968Z,85.90
2018-03-04T03:32:53.933Z,85.80
2018-03-04T03:35:19.913Z,87.40
2018-03-04T03:37:45.925Z,88.20
2018-03-04T03:40:11.942Z,88.00
2018-03-04T03:42:38.671Z,87.00
2018-03-04T03:45:04.643Z,86.90
2018-03-04T03:47:30.609Z,86.50
2018-03-04T03:49:56.565Z,86.30
2018-03-04T03:52:22.536Z,86.30
2018-03-04T03:54:49.248Z,85.90
2018-03-04T03:57:15.338Z,85.80
2018-03-04T03:59:41.308Z,85.30
2018-03-04T04:02:07.265Z,85.50
2018-03-04T04:04:33.242Z,86.00
2018-03-04T04:06:59.957Z,86.70
2018-03-04T04:09:25.920Z,86.60
2018-03-04T04:11:52.629Z,86.60
2018-03-04T04:14:18.613Z,86.60
2018-03-04T04:16:44.667Z,87.50
2018-03-04T04:19:10.657Z,87.60
2018-03-04T04:21:36.624Z,86.60
2018-03-04T04:24:03.329Z,86.80
2018-03-04T04:26:36.193Z,86.70
2018-03-04T04:29:02.144Z,86.10
2018-03-04T04:31:28.114Z,85.90
2018-03-04T04:33:54.074Z,86.00
2018-03-04T04:36:20.793Z,85.00
2018-03-04T04:38:46.789Z,85.00
2018-03-04T04:41:12.793Z,85.60
2018-03-04T04:43:39.486Z,86.20
2018-03-04T04:46:05.460Z,86.20
2018-03-04T04:48:31.414Z,86.20
2018-03-04T04:50:57.372Z,86.50
2018-03-04T04:53:24.083Z,86.00
2018-03-04T04:55:50.129Z,86.00
2018-03-04T04:58:16.309Z,86.40
2018-03-04T05:00:43.255Z,87.10
2018-03-04T05:03:09.236Z,87.60
2018-03-04T05:05:35.192Z,87.60
2018-03-04T05:08:01.164Z,87.80
2018-03-04T05:10:27.133Z,87.70
2018-03-04T05:12:53.101Z,87.30
2018-03-04T05:15:19.072Z,87.00
2018-03-04T05:17:45.782Z,86.10
2018-03-04T05:20:11.773Z,86.10
2018-03-04T05:22:37.740Z,86.30
2018-03-04T05:25:03.716Z,85.70
2018-03-04T05:27:30.415Z,86.30
2018-03-04T05:29:56.385Z,86.30
2018-03-04T05:32:22.361Z,86.50
2018-03-04T05:34:48.331Z,86.70
2018-03-04T05:37:14.499Z,86.80
2018-03-04T05:39:40.454Z,86.60
2018-03-04T05:42:07.199Z,85.70
2018-03-04T05:44:33.888Z,86.70
2018-03-04T05:46:59.868Z,86.60
2018-03-04T05:49:25.841Z,87.90
2018-03-04T05:51:51.840Z,88.10
2018-03-04T05:54:17.831Z,87.30
2018-03-04T05:56:43.853Z,87.20
2018-03-04T05:59:09.818Z,86.80
2018-03-04T06:01:36.629Z,86.90
2018-03-04T06:04:03.333Z,87.00
2018-03-04T06:06:29.308Z,87.00
2018-03-04T06:08:56.013Z,87.20
2018-03-04T06:11:21.968Z,87.20
2018-03-04T06:13:47.954Z,87.20
2018-03-04T06:16:20.736Z,87.20
2018-03-04T06:18:46.723Z,87.70
2018-03-04T06:21:12.695Z,88.20
2018-03-04T06:23:39.397Z,88.70
2018-03-04T06:26:05.363Z,88.70
2018-03-04T06:28:31.303Z,88.50
2018-03-04T06:30:57.263Z,88.90
2018-03-04T06:33:24.000Z,89.50
2018-03-04T06:35:49.960Z,89.40
2018-03-04T06:38:15.945Z,89.20
2018-03-04T06:40:41.963Z,90.00
2018-03-04T06:43:07.909Z,89.40
2018-03-04T06:45:33.873Z,90.00
2018-03-04T06:47:59.832Z,90.30
2018-03-04T06:50:25.793Z,90.70
2018-03-04T06:52:51.756Z,91.00
2018-03-04T06:55:17.787Z,91.00
2018-03-04T06:57:43.870Z,91.40
2018-03-04T07:00:09.780Z,91.30
2018-03-04T07:02:35.747Z,91.10
2018-03-04T07:05:01.704Z,91.40
2018-03-04T07:07:27.664Z,91.10
2018-03-04T07:09:53.621Z,91.10
2018-03-04T07:12:19.585Z,91.30
2018-03-04T07:14:45.597Z,91.00
2018-03-04T07:17:12.372Z,91.40
2018-03-04T07:19:38.327Z,91.40
2018-03-04T07:22:04.288Z,91.50
2018-03-04T07:24:30.232Z,91.60
2018-03-04T07:26:56.204Z,91.70
2018-03-04T07:29:22.894Z,90.70
2018-03-04T07:31:48.855Z,90.70
2018-03-04T07:34:14.841Z,90.50
2018-03-04T07:36:41.119Z,90.90
2018-03-04T07:39:07.092Z,90.80
2018-03-04T07:41:33.788Z,89.10
2018-03-04T07:43:59.761Z,89.10
2018-03-04T07:46:25.716Z,89.30
2018-03-04T07:48:52.413Z,89.30
2018-03-04T07:51:18.401Z,89.30
2018-03-04T07:53:45.130Z,90.60
2018-03-04T07:56:11.088Z,90.50
2018-03-04T07:58:37.783Z,89.80
2018-03-04T08:01:03.744Z,89.40
2018-03-04T08:03:29.705Z,90.00
2018-03-04T08:05:55.667Z,90.80
2018-03-04T08:08:21.659Z,90.80
2018-03-04T08:10:47.638Z,90.30
2018-03-04T08:13:14.398Z,88.30
2018-03-04T08:15:40.370Z,88.30
2018-03-04T08:18:06.333Z,88.90
2018-03-04T08:20:32.298Z,88.10
2018-03-04T08:22:58.276Z,89.20
2018-03-04T08:25:30.297Z,90.10
2018-03-04T08:28:09.391Z,90.30
2018-03-04T08:30:35.352Z,90.30
2018-03-04T08:33:01.326Z,90.50
2018-03-04T08:35:27.286Z,90.30
2018-03-04T08:37:53.284Z,90.30
2018-03-04T08:40:20.048Z,90.60
2018-03-04T08:42:45.981Z,90.60
2018-03-04T08:45:11.968Z,90.80
2018-03-04T08:47:37.936Z,90.90
2018-03-04T08:50:04.645Z,90.90
2018-03-04T08:52:30.634Z,90.90
2018-03-04T08:54:57.324Z,89.90
2018-03-04T08:57:23.295Z,89.90
2018-03-04T08:59:49.259Z,90.00
2018-03-04T09:02:15.263Z,90.00
2018-03-04T09:04:42.012Z,90.20
2018-03-04T09:07:08.728Z,90.00
2018-03-04T09:09:34.712Z,90.00
2018-03-04T09:12:00.667Z,90.10
2018-03-04T09:14:27.360Z,90.00
2018-03-04T09:16:53.333Z,90.00
2018-03-04T09:19:19.341Z,90.70
2018-03-04T09:21:45.359Z,91.20
2018-03-04T09:24:11.338Z,90.80
2018-03-04T09:26:37.300Z,90.70
2018-03-04T09:29:03.252Z,91.10
2018-03-04T09:31:29.195Z,91.00
2018-03-04T09:33:55.148Z,90.80
2018-03-04T09:36:21.120Z,90.80
2018-03-04T09:38:47.886Z,90.40
2018-03-04T09:41:14.603Z,90.00
2018-03-04T09:43:40.570Z,90.00
2018-03-04T09:46:07.270Z,88.70
2018-03-04T09:48:33.238Z,88.70
2018-03-04T09:50:59.180Z,88.50
2018-03-04T09:53:25.156Z,89.60
2018-03-04T09:55:51.125Z,88.60
2018-03-04T09:58:17.140Z,87.50
2018-03-04T10:00:43.125Z,87.70
2018-03-04T10:03:09.100Z,87.40
2018-03-04T10:05:35.084Z,87.60
2018-03-04T10:08:01.065Z,86.30
2018-03-04T10:10:27.021Z,87.00
2018-03-04T10:12:53.004Z,85.30
2018-03-04T10:15:19.709Z,84.70
2018-03-04T10:17:45.760Z,84.60
2018-03-04T10:20:11.757Z,84.70
2018-03-04T10:22:37.731Z,85.60
2018-03-04T10:25:03.709Z,86.30
2018-03-04T10:27:30.411Z,82.90
2018-03-04T10:29:56.365Z,82.90
2018-03-04T10:32:22.368Z,84.80
2018-03-04T10:34:48.348Z,83.70
2018-03-04T10:37:14.345Z,83.50
2018-03-04T10:39:40.321Z,81.00
2018-03-04T10:42:07.052Z,80.10
2018-03-04T10:44:33.026Z,80.10
2018-03-04T10:46:59.716Z,81.50
2018-03-04T10:49:25.704Z,81.50
2018-03-04T10:51:52.431Z,81.00
2018-03-04T10:54:19.173Z,81.70
2018-03-04T10:56:45.161Z,81.60
2018-03-04T10:59:11.153Z,82.50
2018-03-04T11:01:39.073Z,83.60
2018-03-04T11:04:05.096Z,81.60
2018-03-04T11:06:31.832Z,78.60
2018-03-04T11:08:57.815Z,78.60
2018-03-04T11:11:23.792Z,76.20
2018-03-04T11:13:49.792Z,77.20
2018-03-04T11:16:15.823Z,76.00
2018-03-04T11:18:41.830Z,75.00
2018-03-04T11:21:07.935Z,73.30
2018-03-04T11:23:33.900Z,73.60
2018-03-04T11:26:00.596Z,70.50
2018-03-04T11:28:26.561Z,70.50
2018-03-04T11:30:52.842Z,67.70
2018-03-04T11:33:18.876Z,70.50
2018-03-04T11:35:45.618Z,69.30
2018-03-04T11:38:12.374Z,70.20
2018-03-04T11:40:46.064Z,73.50
2018-03-04T11:43:12.896Z,73.40
2018-03-04T11:45:38.841Z,73.30
2018-03-04T11:48:04.809Z,73.30
2018-03-04T11:50:30.773Z,71.20
2018-03-04T11:52:56.741Z,70.10
2018-03-04T11:55:22.718Z,69.00
2018-03-04T11:57:48.703Z,66.40
2018-03-04T12:00:14.715Z,66.80
2018-03-04T12:02:40.679Z,68.70
2018-03-04T12:05:06.637Z,68.20
2018-03-04T12:07:32.608Z,71.10
2018-03-04T12:09:59.342Z,74.50
2018-03-04T12:12:25.309Z,74.50
2018-03-04T12:14:51.280Z,75.20
2018-03-04T12:17:17.273Z,77.20
2018-03-04T12:19:43.992Z,77.80
2018-03-04T12:22:09.948Z,77.70
2018-03-04T12:24:36.675Z,76.70
2018-03-04T12:27:02.649Z,76.60
2018-03-04T12:29:29.399Z,75.90
2018-03-04T12:31:56.116Z,75.70
2018-03-04T12:34:22.090Z,75.70
2018-03-04T12:36:48.824Z,78.80
2018-03-04T12:39:15.564Z,79.70
2018-03-04T12:41:41.526Z,80.10
2018-03-04T12:44:08.238Z,79.40
2018-03-04T12:46:34.209Z,79.40
2018-03-04T12:49:00.924Z,77.50
2018-03-04T12:51:26.879Z,77.40
2018-03-04T12:53:52.850Z,77.50
2018-03-04T12:56:18.825Z,77.70
2018-03-04T12:58:44.825Z,77.50
2018-03-04T13:01:10.792Z,78.00
2018-03-04T13:03:36.752Z,77.70
2018-03-04T13:06:02.722Z,77.10
2018-03-04T13:08:28.688Z,76.10
2018-03-04T13:10:54.931Z,75.50
2018-03-04T13:13:20.937Z,75.80
2018-03-04T13:15:46.942Z,75.00
2018-03-04T13:18:12.944Z,75.50
2018-03-04T13:20:38.906Z,75.30
2018-03-04T13:23:04.872Z,74.60
2018-03-04T13:25:30.857Z,73.40
2018-03-04T13:27:56.817Z,71.10
2018-03-04T13:30:22.816Z,72.40
2018-03-04T13:32:48.838Z,71.30
2018-03-04T13:35:14.872Z,70.30
2018-03-04T13:37:40.852Z,69.30
2018-03-04T13:40:06.825Z,69.20
2018-03-04T13:42:32.776Z,69.00
2018-03-04T13:44:58.745Z,68.00
2018-03-04T13:47:24.696Z,67.10
2018-03-04T13:49:50.670Z,66.70
2018-03-04T13:52:16.642Z,66.40
2018-03-04T13:54:42.665Z,64.50
2018-03-04T13:57:08.642Z,63.80
2018-03-04T13:59:35.347Z,63.10
2018-03-04T14:02:01.312Z,64.30
2018-03-04T14:04:27.296Z,62.60
2018-03-04T14:06:53.276Z,63.20
2018-03-04T14:09:19.261Z,62.40
2018-03-04T14:11:45.989Z,62.90
2018-03-04T14:14:11.970Z,62.90
2018-03-04T14:16:37.933Z,63.60
2018-03-04T14:19:03.900Z,62.40
2018-03-04T14:21:30.600Z,61.70
2018-03-04T14:23:56.593Z,61.60
2018-03-04T14:26:23.309Z,61.10
2018-03-04T14:28:49.272Z,61.10
2018-03-04T14:31:15.261Z,60.70
2018-03-04T14:33:41.267Z,61.00
2018-03-04T14:36:07.971Z,60.00
2018-03-04T14:38:33.946Z,60.00
2018-03-04T14:41:00.636Z,60.20
2018-03-04T14:43:26.588Z,60.20
2018-03-04T14:45:52.552Z,60.00
2018-03-04T14:48:18.600Z,59.70
2018-03-04T14:50:45.384Z,60.00
2018-03-04T14:53:11.359Z,60.40
2018-03-04T14:55:37.313Z,60.20
2018-03-04T14:58:03.264Z,60.20
2018-03-04T15:00:29.974Z,60.40
2018-03-04T15:02:55.929Z,60.30
2018-03-04T15:05:21.898Z,60.20
2018-03-04T15:07:47.873Z,60.80
2018-03-04T15:10:13.878Z,60.20
2018-03-04T15:12:39.842Z,60.70
2018-03-04T15:15:05.822Z,60.70
2018-03-04T15:17:32.541Z,61.20
2018-03-04T15:19:58.530Z,61.20
2018-03-04T15:22:24.485Z,61.00
2018-03-04T15:24:50.459Z,62.80
2018-03-04T15:27:17.215Z,61.90
2018-03-04T15:29:43.255Z,61.90
2018-03-04T15:32:09.213Z,61.30
2018-03-04T15:34:35.933Z,61.30
2018-03-04T15:37:01.876Z,61.30
2018-03-04T15:39:27.840Z,60.40
2018-03-04T15:41:53.805Z,60.60
2018-03-04T15:44:19.865Z,61.20
2018-03-04T15:46:45.943Z,61.50
2018-03-04T15:49:12.712Z,62.20
2018-03-04T15:51:38.709Z,62.10
2018-03-04T15:54:04.660Z,62.30
2018-03-04T15:56:31.358Z,62.60
2018-03-04T15:58:57.337Z,62.60
2018-03-04T16:01:23.292Z,62.60
2018-03-04T16:03:50.004Z,63.10
2018-03-04T16:06:16.019Z,63.00
2018-03-04T16:08:42.043Z,63.30
2018-03-04T16:11:08.021Z,63.30
2018-03-04T16:13:33.995Z,63.00
2018-03-04T16:15:59.956Z,64.10
2018-03-04T16:18:25.908Z,63.00
2018-03-04T16:20:51.961Z,63.10
2018-03-04T16:23:18.144Z,64.40
2018-03-04T16:25:44.194Z,64.40
2018-03-04T16:28:10.159Z,64.40
2018-03-04T16:30:36.124Z,64.60
2018-03-04T16:33:02.825Z,64.40
2018-03-04T16:35:28.806Z,64.30
2018-03-04T16:37:54.775Z,64.30
2018-03-04T16:40:20.780Z,64.70
2018-03-04T16:42:46.768Z,64.90
2018-03-04T16:45:12.773Z,65.00
2018-03-04T16:47:38.736Z,65.20
2018-03-04T16:50:04.715Z,65.40
2018-03-04T16:52:30.668Z,65.40
2018-03-04T16:54:57.372Z,65.90
2018-03-04T16:57:23.339Z,65.90
2018-03-04T16:59:49.314Z,65.90
2018-03-04T17:02:15.272Z,66.00
2018-03-04T17:04:41.228Z,66.10
2018-03-04T17:07:08.677Z,66.60
2018-03-04T17:09:34.636Z,66.60
2018-03-04T17:12:00.600Z,66.60
2018-03-04T17:14:27.311Z,66.90
2018-03-04T17:16:53.274Z,66.90
2018-03-04T17:19:19.269Z,67.20
2018-03-04T17:21:45.244Z,67.40
2018-03-04T17:24:11.983Z,67.30
2018-03-04T17:26:38.689Z,67.90
2018-03-04T17:29:04.664Z,67.70
2018-03-04T17:31:30.649Z,67.80
2018-03-04T17:33:56.604Z,67.90
2018-03-04T17:36:22.570Z,68.10
2018-03-04T17:38:48.532Z,68.20
2018-03-04T17:41:15.281Z,68.40
2018-03-04T17:43:42.015Z,68.50
2018-03-04T17:46:08.720Z,68.80
2018-03-04T17:48:34.667Z,68.90
2018-03-04T17:51:00.639Z,68.70
2018-03-04T17:53:26.602Z,68.90
2018-03-04T17:55:53.322Z,68.60
2018-03-04T17:58:19.363Z,68.60
2018-03-04T18:00:45.397Z,68.70
2018-03-04T18:03:11.347Z,68.80
2018-03-04T18:05:38.062Z,69.50
2018-03-04T18:08:04.020Z,69.00
2018-03-04T18:10:30.010Z,68.90
2018-03-04T18:12:56.009Z,68.70
2018-03-04T18:15:21.986Z,68.70
2018-03-04T18:17:47.992Z,68.60
2018-03-04T18:20:14.853Z,68.90
2018-03-04T18:22:40.885Z,68.80
2018-03-04T18:25:07.583Z,68.90
2018-03-04T18:27:40.552Z,68.80
2018-03-04T18:30:06.517Z,68.90
2018-03-04T18:32:32.480Z,68.90
2018-03-04T18:34:58.793Z,69.10
2018-03-04T18:37:24.765Z,69.30
2018-03-04T18:39:50.747Z,69.30
2018-03-04T18:42:16.794Z,69.30
2018-03-04T18:44:43.076Z,69.30
2018-03-04T18:47:09.050Z,69.30
2018-03-04T18:49:35.076Z,69.90
2018-03-04T18:52:01.781Z,69.60
2018-03-04T18:54:27.749Z,69.40
2018-03-04T18:56:53.721Z,69.60
2018-03-04T18:59:19.672Z,69.90
2018-03-04T19:01:45.682Z,70.20
2018-03-04T19:04:11.660Z,70.30
2018-03-04T19:06:37.629Z,70.30
2018-03-04T19:09:04.325Z,70.30
2018-03-04T19:11:30.297Z,70.20
2018-03-04T19:13:56.269Z,70.10
2018-03-04T19:16:22.977Z,69.90
2018-03-04T19:18:49.062Z,69.70
2018-03-04T19:21:15.236Z,69.60
2018-03-04T19:23:41.205Z,69.60
2018-03-04T19:26:07.168Z,69.40
2018-03-04T19:28:33.884Z,69.40
2018-03-04T19:30:59.882Z,69.30
2018-03-04T19:33:25.841Z,69.50
2018-03-04T19:35:51.801Z,69.40
2018-03-04T19:38:17.821Z,69.60
2018-03-04T19:40:43.809Z,69.40
2018-03-04T19:43:09.773Z,69.70
2018-03-04T19:45:35.732Z,69.60
2018-03-04T19:48:01.713Z,69.80
2018-03-04T19:50:27.685Z,69.90
2018-03-04T19:52:53.643Z,70.10
2018-03-04T19:55:19.629Z,70.60
2018-03-04T19:57:45.617Z,70.60
2018-03-04T20:00:11.579Z,70.90
2018-03-04T20:02:38.290Z,70.90
2018-03-04T20:05:04.249Z,70.80
2018-03-04T20:07:30.276Z,71.00
2018-03-04T20:09:56.201Z,71.30
2018-03-04T20:12:29.172Z,70.80
2018-03-04T20:14:55.153Z,70.80
2018-03-04T20:17:21.124Z,71.00
2018-03-04T20:19:47.146Z,71.20
2018-03-04T20:22:13.973Z,70.90
2018-03-04T20:24:39.938Z,70.90
2018-03-04T20:27:06.638Z,70.40
2018-03-04T20:29:32.600Z,70.40
2018-03-04T20:31:58.601Z,70.00
2018-03-04T20:34:24.561Z,70.20
2018-03-04T20:36:50.553Z,70.90
2018-03-04T20:39:16.539Z,71.10
2018-03-04T20:41:42.544Z,71.90
2018-03-04T20:44:08.527Z,71.10
2018-03-04T20:46:35.252Z,69.50
2018-03-04T20:49:01.200Z,69.40
2018-03-04T20:51:27.161Z,69.20
2018-03-04T20:53:53.863Z,69.00
2018-03-04T20:56:19.847Z,68.90
2018-03-04T20:58:46.585Z,69.40
2018-03-04T21:01:12.627Z,69.40
2018-03-04T21:03:39.337Z,69.70
2018-03-04T21:06:05.297Z,69.70
2018-03-04T21:08:31.256Z,70.80
2018-03-04T21:10:57.954Z,72.30
2018-03-04T21:13:23.919Z,72.30
2018-03-04T21:15:49.878Z,73.40
2018-03-04T21:18:16.626Z,75.20
2018-03-04T21:20:43.448Z,75.30
2018-03-04T21:23:10.168Z,76.50
2018-03-04T21:25:36.132Z,76.40
2018-03-04T21:28:02.092Z,77.10
2018-03-04T21:30:28.061Z,77.20
2018-03-04T21:32:54.045Z,77.40
2018-03-04T21:35:20.142Z,79.30
2018-03-04T21:37:46.139Z,80.60
2018-03-04T21:40:12.979Z,83.30
2018-03-04T21:42:38.945Z,83.30
2018-03-04T21:45:05.636Z,86.40
2018-03-04T21:47:31.600Z,85.80
2018-03-04T21:49:57.576Z,87.40
2018-03-04T21:52:24.284Z,87.30
2018-03-04T21:54:50.266Z,87.20
2018-03-04T21:57:17.080Z,88.00
2018-03-04T21:59:43.099Z,88.00
2018-03-04T22:02:09.089Z,88.80
2018-03-04T22:04:35.040Z,88.10
2018-03-04T22:07:01.744Z,88.90
2018-03-04T22:09:27.707Z,88.90
2018-03-04T22:11:53.768Z,89.50
2018-03-04T22:14:19.719Z,89.60
2018-03-04T22:16:45.765Z,89.60
2018-03-04T22:19:11.749Z,90.00
2018-03-04T22:21:38.525Z,90.20
2018-03-04T22:24:05.225Z,90.00
2018-03-04T22:26:31.218Z,90.00
2018-03-04T22:28:57.924Z,89.60
2018-03-04T22:31:23.898Z,89.60
2018-03-04T22:33:50.596Z,89.60
2018-03-04T22:36:16.602Z,89.60
2018-03-04T22:38:42.594Z,89.70
2018-03-04T22:41:08.552Z,89.50
2018-03-04T22:43:35.269Z,90.80
2018-03-04T22:46:01.230Z,91.00
2018-03-04T22:48:27.943Z,91.40
2018-03-04T22:50:53.905Z,91.20
2018-03-04T22:53:19.897Z,91.30
2018-03-04T22:55:46.370Z,91.30
2018-03-04T22:58:12.376Z,91.40
2018-03-04T23:00:38.355Z,91.20
2018-03-04T23:03:05.074Z,90.70
2018-03-04T23:05:31.024Z,90.70
2018-03-04T23:07:57.253Z,90.60
2018-03-04T23:10:23.233Z,90.70
2018-03-04T23:12:49.954Z,91.00
2018-03-04T23:15:15.957Z,90.60
2018-03-04T23:17:41.928Z,90.70
2018-03-04T23:20:08.969Z,91.50
2018-03-04T23:22:41.786Z,91.20
2018-03-04T23:25:07.749Z,91.20
2018-03-04T23:27:33.721Z,91.30
2018-03-04T23:29:59.689Z,91.50
2018-03-04T23:32:25.661Z,91.10
2018-03-04T23:34:52.364Z,91.40
2018-03-04T23:37:18.337Z,91.10
2018-03-04T23:39:45.078Z,91.50
2018-03-04T23:42:11.045Z,91.50
2018-03-04T23:44:37.737Z,91.80
2018-03-04T23:47:03.709Z,91.80
2018-03-04T23:49:29.674Z,91.90
2018-03-04T23:51:55.649Z,91.80
2018-03-04T23:54:21.617Z,92.00
2018-03-04T23:56:47.651Z,92.00
2018-03-04T23:59:13.670Z,92.10
